Deadwood, SD (57732)

7:16 AM MST on February 25, 2017 (GMT -0700)
Lower Nevada Gulch | | Change Station

Elev 5403 ft 44.34 °N, 103.79 °W | Updated 10 seconds ago

Mostly Cloudy
Mostly Cloudy
18.1 °F
Feels Like 18 °F
N
3.0
Wind Variable Wind from West

Today
High -- | Low -- °F
--% Chance of Precip.
Yesterday
High -- | Low -- °F
Precip. -- in
Pressure 29.88 in
Visibility 10.0 miles
Clouds Overcast 2300 ft
Windchill 18 °F
Dew Point 14 °F
Humidity 86%
Rainfall 0.00 in
Snow Depth Not available.
6:38 AM 5:38 PM
Waning Crescent, 1% visible
METAR KSPF 251415Z AUTO 28007G12KT 10SM OVC023 M04/M08 A2988 RMK AO2
Pressure 29.88 in
Visibility 10.0 miles
Clouds Overcast 2300 ft
Windchill 18 °F
Dew Point 14 °F
Humidity 86%
Rainfall 0.00 in
Snow Depth Not available.
6:38 AM 5:38 PM
Waning Crescent, 1% visible
METAR KSPF 251415Z AUTO 28007G12KT 10SM OVC023 M04/M08 A2988 RMK AO2

Get Your Daily Forecast Email!

Thanks for signing up!

Be on the lookout for a verification email in your inbox.

You'll start receiving the daily forecast at 8 AM.

×

10-Day Weather Forecast

Almanac

Astronomy

Feb. 25, 2017 Rise Set
Actual Time
Civil Twilight
Nautical Twilight
Astronomical Twilight
Moon
Length of Visible Light
Length of Day
Tomorrow will be .
, % of the Moon is Illuminated

Today's Extremes

State Highs State Lows

Community

WunderPhotos

Upload Photos

1,962,540 photos uploaded!

WunderBlog® & News

Nearby

Air Quality

  Air Quality AQ Index Pollutant
Not available.

Snow Depth

Station Depth Elevation

Earthquake Activity

City Distance Mag. Time & Date
Minimum magnitude displayed is 2.5.

Coastal Water Temperatures

Place Temperature

Stations

Nearby Weather Stations

Station Location Temp. Windchill Dew Point Humidity Wind Precip. Elev Updated Type
                   

Watches & Warnings

There are currently no watches in effect.